Time;durP1;ratioP1;P1;durP2;ratioP2;P2;SDS_P1;SDS_P2;PMS_P1;PMS_P2;Temp;Humidity;BMP_temperature;BMP_pressure;BME280_temperature;BME280_humidity;BME280_pressure;Samples;Min_cycle;Max_cycle;Signal;HPM_P1;HPM_P2
2023/04/24 01:37:53;;;;;;;1999.90;999.90;;;;;;;;;;6212149;23;20186;-58
2023/04/24 01:40:38;;;;;;;1999.90;999.90;;;;;;;;;;6211768;23;20445;-62
2023/04/24 01:43:24;;;;;;;1999.90;999.90;;;;;;;;;;6213518;23;20185;-64
2023/04/24 01:46:09;;;;;;;1999.90;999.90;;;;;;;;;;6213773;23;20208;-65
2023/04/24 01:48:54;;;;;;;1999.90;999.90;;;;;;;;;;6214195;23;20626;-64
2023/04/24 01:51:39;;;;;;;1999.90;999.90;;;;;;;;;;6214079;23;20295;-65
2023/04/24 01:54:26;;;;;;;1999.90;999.90;;;;;;;;;;6213757;23;20229;-65
2023/04/24 01:57:11;;;;;;;1999.90;999.90;;;;;;;;;;6214038;23;20713;-65
2023/04/24 01:59:56;;;;;;;1999.90;999.90;;;;;;;;;;6213983;23;20170;-64
2023/04/24 02:02:42;;;;;;;1999.90;999.90;;;;;;;;;;6212593;23;20210;-67
2023/04/24 02:05:27;;;;;;;1999.90;999.90;;;;;;;;;;6213062;23;20345;-63
2023/04/24 02:08:12;;;;;;;1999.90;999.90;;;;;;;;;;6213864;23;20170;-65
2023/04/24 02:10:58;;;;;;;1999.90;999.90;;;;;;;;;;6212880;23;20164;-63
2023/04/24 02:13:43;;;;;;;1999.90;999.90;;;;;;;;;;6213502;23;20169;-64
2023/04/24 02:16:30;;;;;;;1999.90;999.90;;;;;;;;;;6213606;23;20536;-65
2023/04/24 02:19:15;;;;;;;1999.90;999.90;;;;;;;;;;6213789;23;20513;-65
2023/04/24 02:21:59;;;;;;;1999.90;999.90;;;;;;;;;;6213814;23;20166;-64
2023/04/24 02:24:44;;;;;;;1999.90;999.90;;;;;;;;;;6213558;23;20168;-63
2023/04/24 02:27:31;;;;;;;1999.90;999.90;;;;;;;;;;6213969;23;20204;-64
2023/04/24 02:30:16;;;;;;;1999.90;999.90;;;;;;;;;;6213994;23;20189;-64
2023/04/24 02:33:00;;;;;;;1999.90;999.90;;;;;;;;;;6212087;23;25135;-65
2023/04/24 02:35:45;;;;;;;1999.90;999.90;;;;;;;;;;6213574;23;20202;-65
2023/04/24 02:38:30;;;;;;;1999.90;999.90;;;;;;;;;;6213948;23;20170;-61
2023/04/24 02:41:15;;;;;;;1999.90;999.90;;;;;;;;;;6213918;23;20177;-65
2023/04/24 02:44:01;;;;;;;1999.90;999.90;;;;;;;;;;6213789;23;20205;-64
2023/04/24 02:46:46;;;;;;;1999.90;999.90;;;;;;;;;;6212451;23;20402;-64
2023/04/24 02:49:31;;;;;;;1999.90;999.90;;;;;;;;;;6213864;23;20222;-64
2023/04/24 02:52:16;;;;;;;1999.90;999.90;;;;;;;;;;6214106;23;20169;-64
2023/04/24 02:55:01;;;;;;;1999.90;999.90;;;;;;;;;;6213599;23;20166;-64
2023/04/24 02:57:46;;;;;;;1999.90;999.90;;;;;;;;;;6213416;23;20558;-66
2023/04/24 03:00:32;;;;;;;1999.90;999.90;;;;;;;;;;6213020;23;20169;-64
2023/04/24 03:03:17;;;;;;;1999.90;999.90;;;;;;;;;;6212820;23;20854;-64
2023/04/24 03:06:02;;;;;;;1999.90;999.90;;;;;;;;;;6212919;23;20205;-65
2023/04/24 03:08:47;;;;;;;1999.90;999.90;;;;;;;;;;6212462;23;20181;-64
2023/04/24 03:11:32;;;;;;;1999.90;999.90;;;;;;;;;;6213094;23;20204;-65
2023/04/24 03:14:17;;;;;;;1999.90;999.90;;;;;;;;;;6212021;23;20182;-64
2023/04/24 03:17:03;;;;;;;1999.90;999.90;;;;;;;;;;6212826;23;20197;-64
2023/04/24 03:19:48;;;;;;;1999.90;999.90;;;;;;;;;;6212763;23;20185;-66
2023/04/24 03:22:33;;;;;;;1999.90;999.90;;;;;;;;;;6211774;23;20498;-64
2023/04/24 03:25:18;;;;;;;1999.90;999.90;;;;;;;;;;6212073;23;20237;-65
2023/04/24 03:28:03;;;;;;;1999.90;999.90;;;;;;;;;;6212197;23;20173;-64
2023/04/24 03:30:48;;;;;;;1999.90;999.90;;;;;;;;;;6212875;23;20690;-64
2023/04/24 03:33:35;;;;;;;1999.90;999.90;;;;;;;;;;6211920;23;20176;-63
2023/04/24 03:36:20;;;;;;;1999.90;999.90;;;;;;;;;;6212184;23;20387;-62
2023/04/24 03:39:05;;;;;;;1999.90;999.90;;;;;;;;;;6212593;23;20509;-64
2023/04/24 03:41:50;;;;;;;1999.90;999.90;;;;;;;;;;6212792;23;20166;-64
2023/04/24 03:44:35;;;;;;;1999.90;999.90;;;;;;;;;;6211515;23;20192;-64
2023/04/24 03:47:19;;;;;;;1999.90;999.90;;;;;;;;;;6213140;23;20288;-64
2023/04/24 03:50:06;;;;;;;1999.90;999.90;;;;;;;;;;6214314;23;20205;-64
2023/04/24 03:52:51;;;;;;;1999.90;999.90;;;;;;;;;;6214345;23;20167;-65
2023/04/24 03:55:36;;;;;;;1999.90;999.90;;;;;;;;;;6213936;23;20197;-65
2023/04/24 03:58:21;;;;;;;1999.90;999.90;;;;;;;;;;6214639;23;20169;-64
2023/04/24 04:01:06;;;;;;;1999.90;999.90;;;;;;;;;;6214662;23;20312;-62
2023/04/24 04:03:51;;;;;;;1999.90;999.90;;;;;;;;;;6214034;23;20170;-64
2023/04/24 04:06:37;;;;;;;1999.90;999.90;;;;;;;;;;6214190;23;20210;-64
2023/04/24 04:09:22;;;;;;;1999.90;999.90;;;;;;;;;;6214274;23;20254;-65
2023/04/24 04:12:07;;;;;;;1999.90;999.90;;;;;;;;;;6213483;23;20382;-65
2023/04/24 04:14:52;;;;;;;1999.90;999.90;;;;;;;;;;6213910;23;20218;-66
2023/04/24 04:17:38;;;;;;;1999.90;999.90;;;;;;;;;;6213825;23;20217;-64
2023/04/24 04:20:23;;;;;;;1999.90;999.90;;;;;;;;;;6213885;23;20165;-64
2023/04/24 04:23:09;;;;;;;1999.90;999.90;;;;;;;;;;6213689;23;20173;-64
2023/04/24 04:25:54;;;;;;;1999.90;999.90;;;;;;;;;;6213310;23;20459;-64
2023/04/24 04:28:39;;;;;;;1999.90;999.90;;;;;;;;;;6213850;23;20174;-64
2023/04/24 04:31:24;;;;;;;1999.90;999.90;;;;;;;;;;6214311;23;20169;-65
2023/04/24 04:34:09;;;;;;;1999.90;999.90;;;;;;;;;;6213568;23;20250;-64
2023/04/24 04:36:55;;;;;;;1999.90;999.90;;;;;;;;;;6213481;23;20288;-64
2023/04/24 04:39:41;;;;;;;1999.90;999.90;;;;;;;;;;6214012;23;20173;-64
2023/04/24 04:42:26;;;;;;;1999.90;999.90;;;;;;;;;;6214230;23;20173;-64
2023/04/24 04:45:12;;;;;;;1999.90;999.90;;;;;;;;;;6214259;23;20213;-64
2023/04/24 04:47:57;;;;;;;1999.90;999.90;;;;;;;;;;6214931;23;20196;-66
2023/04/24 04:50:42;;;;;;;1999.90;999.90;;;;;;;;;;6214320;23;20166;-64
2023/04/24 04:53:27;;;;;;;1999.90;999.90;;;;;;;;;;6214391;23;20220;-65
2023/04/24 04:56:13;;;;;;;1999.90;999.90;;;;;;;;;;6214791;23;20201;-67
2023/04/24 04:58:59;;;;;;;1999.90;999.90;;;;;;;;;;6215130;23;20245;-66
2023/04/24 05:01:43;;;;;;;1999.90;999.90;;;;;;;;;;6212689;23;21151;-64
2023/04/24 05:04:28;;;;;;;1999.90;999.90;;;;;;;;;;6214440;23;20213;-65
2023/04/24 05:07:13;;;;;;;1999.90;999.90;;;;;;;;;;6214395;23;20538;-65
2023/04/24 05:09:58;;;;;;;1999.90;999.90;;;;;;;;;;6214258;23;20166;-67
2023/04/24 05:12:45;;;;;;;1999.90;999.90;;;;;;;;;;6214272;23;20170;-57
2023/04/24 05:15:30;;;;;;;1999.90;999.90;;;;;;;;;;6212901;23;20375;-58
2023/04/24 05:18:15;;;;;;;1999.90;999.90;;;;;;;;;;6214901;23;20166;-63
2023/04/24 05:21:01;;;;;;;1999.90;999.90;;;;;;;;;;6214648;23;20174;-66
2023/04/24 05:23:46;;;;;;;1999.90;999.90;;;;;;;;;;6214341;23;20170;-63
2023/04/24 05:26:31;;;;;;;1999.90;999.90;;;;;;;;;;6214153;23;20201;-66
2023/04/24 05:29:18;;;;;;;1999.90;999.90;;;;;;;;;;6214422;23;20182;-65
2023/04/24 05:32:03;;;;;;;1999.90;999.90;;;;;;;;;;6214378;23;20213;-61
2023/04/24 05:34:48;;;;;;;1999.90;999.90;;;;;;;;;;6213808;23;20209;-60
2023/04/24 05:37:33;;;;;;;1999.90;999.90;;;;;;;;;;6213231;23;20304;-66
2023/04/24 05:40:18;;;;;;;1999.90;999.90;;;;;;;;;;6214285;23;20673;-63
2023/04/24 05:43:03;;;;;;;1999.90;999.90;;;;;;;;;;6214178;23;20213;-63
2023/04/24 05:45:49;;;;;;;1999.90;999.90;;;;;;;;;;6213564;23;20273;-62
2023/04/24 05:48:34;;;;;;;1999.90;999.90;;;;;;;;;;6214203;23;20169;-63
2023/04/24 05:51:19;;;;;;;1999.90;999.90;;;;;;;;;;6213201;23;20851;-65
2023/04/24 05:54:04;;;;;;;1999.90;999.90;;;;;;;;;;6213692;23;20173;-65
2023/04/24 05:56:50;;;;;;;1999.90;999.90;;;;;;;;;;6213920;23;20201;-65
2023/04/24 05:59:34;;;;;;;1999.90;999.90;;;;;;;;;;6213817;23;20166;-66
2023/04/24 06:02:20;;;;;;;1999.90;999.90;;;;;;;;;;6214294;23;20619;-65
2023/04/24 06:05:06;;;;;;;1999.90;999.90;;;;;;;;;;6213667;23;20375;-66
2023/04/24 06:07:51;;;;;;;1999.90;999.90;;;;;;;;;;6213770;23;20193;-66
2023/04/24 06:10:36;;;;;;;1999.90;999.90;;;;;;;;;;6213614;23;20219;-65
2023/04/24 06:13:21;;;;;;;1999.90;999.90;;;;;;;;;;6213885;23;20166;-64
2023/04/24 06:16:06;;;;;;;1999.90;999.90;;;;;;;;;;6213837;23;20247;-64
2023/04/24 06:18:52;;;;;;;1999.90;999.90;;;;;;;;;;6213496;23;20220;-64
2023/04/24 06:21:37;;;;;;;1999.90;999.90;;;;;;;;;;6213743;23;20167;-61
2023/04/24 06:24:22;;;;;;;1999.90;999.90;;;;;;;;;;6213455;23;20172;-65
2023/04/24 06:27:07;;;;;;;1999.90;999.90;;;;;;;;;;6212786;23;20223;-66
2023/04/24 06:29:54;;;;;;;1999.90;999.90;;;;;;;;;;6213095;23;20166;-66
2023/04/24 06:32:39;;;;;;;1999.90;999.90;;;;;;;;;;6213321;23;20171;-66
2023/04/24 06:35:25;;;;;;;1999.90;999.90;;;;;;;;;;6212347;23;20170;-66
2023/04/24 06:38:10;;;;;;;1999.90;999.90;;;;;;;;;;6212961;23;20162;-66
2023/04/24 06:40:54;;;;;;;1999.90;999.90;;;;;;;;;;6211842;23;20252;-66
2023/04/24 06:43:40;;;;;;;1999.90;999.90;;;;;;;;;;6212173;23;20220;-67
2023/04/24 06:46:26;;;;;;;1999.90;999.90;;;;;;;;;;6211231;23;20398;-65
2023/04/24 06:49:10;;;;;;;1999.90;999.90;;;;;;;;;;6212877;23;20167;-66
2023/04/24 06:51:56;;;;;;;1999.90;999.90;;;;;;;;;;6212310;23;20637;-65
2023/04/24 06:54:42;;;;;;;1999.90;999.90;;;;;;;;;;6213644;23;20169;-66
2023/04/24 06:57:27;;;;;;;1999.90;999.90;;;;;;;;;;6213793;23;20645;-66
2023/04/24 07:00:12;;;;;;;1999.90;999.90;;;;;;;;;;6213611;23;20078;-66
2023/04/24 07:02:58;;;;;;;1999.90;999.90;;;;;;;;;;6213637;23;20372;-66
2023/04/24 07:05:43;;;;;;;1999.90;999.90;;;;;;;;;;6212634;23;20275;-66
2023/04/24 07:08:30;;;;;;;1999.90;999.90;;;;;;;;;;6212624;23;20170;-65
2023/04/24 07:11:15;;;;;;;1999.90;999.90;;;;;;;;;;6212978;23;20661;-66
2023/04/24 07:14:00;;;;;;;1999.90;999.90;;;;;;;;;;6213096;23;20513;-65
2023/04/24 07:16:45;;;;;;;1999.90;999.90;;;;;;;;;;6213233;23;20197;-67
2023/04/24 07:19:30;;;;;;;1999.90;999.90;;;;;;;;;;6212564;23;20290;-65
2023/04/24 07:22:16;;;;;;;1999.90;999.90;;;;;;;;;;6213140;23;20166;-67
2023/04/24 07:25:02;;;;;;;1999.90;999.90;;;;;;;;;;6214130;23;20209;-65
2023/04/24 07:27:48;;;;;;;1999.90;999.90;;;;;;;;;;6213867;23;20725;-67
2023/04/24 07:30:34;;;;;;;1999.90;999.90;;;;;;;;;;6214237;23;20166;-65
2023/04/24 07:33:18;;;;;;;1999.90;999.90;;;;;;;;;;6213654;23;20297;-65
2023/04/24 07:36:04;;;;;;;1999.90;999.90;;;;;;;;;;6213931;23;20697;-65
2023/04/24 07:38:49;;;;;;;1999.90;999.90;;;;;;;;;;6214846;23;20166;-65
2023/04/24 07:41:37;;;;;;;1999.90;999.90;;;;;;;;;;6215767;23;20627;-65
2023/04/24 07:44:22;;;;;;;1999.90;999.90;;;;;;;;;;6214022;23;20212;-67
2023/04/24 07:47:07;;;;;;;1999.90;999.90;;;;;;;;;;6214421;23;20209;-65
2023/04/24 07:49:52;;;;;;;1999.90;999.90;;;;;;;;;;6214282;23;20293;-65
2023/04/24 07:52:37;;;;;;;1999.90;999.90;;;;;;;;;;6214182;23;20169;-65
2023/04/24 07:55:21;;;;;;;1999.90;999.90;;;;;;;;;;6214104;23;20169;-65
2023/04/24 07:58:08;;;;;;;1999.90;999.90;;;;;;;;;;6214852;23;20177;-67
2023/04/24 08:00:52;;;;;;;1999.90;999.90;;;;;;;;;;6214561;23;20212;-67
2023/04/24 08:03:37;;;;;;;1999.90;999.90;;;;;;;;;;6214164;23;20169;-65
2023/04/24 08:06:22;;;;;;;1999.90;999.90;;;;;;;;;;6214480;23;20595;-66
2023/04/24 08:09:08;;;;;;;1999.90;999.90;;;;;;;;;;6214140;23;20169;-65
2023/04/24 08:11:53;;;;;;;1999.90;999.90;;;;;;;;;;6214151;23;20256;-66
2023/04/24 08:14:40;;;;;;;1999.90;999.90;;;;;;;;;;6213735;23;20172;-65
2023/04/24 08:17:25;;;;;;;1999.90;999.90;;;;;;;;;;6214048;23;20547;-64
2023/04/24 08:20:13;;;;;;;1999.90;999.90;;;;;;;;;;6214822;23;20173;-65
2023/04/24 08:22:58;;;;;;;1999.90;999.90;;;;;;;;;;6214828;23;20169;-65
2023/04/24 08:25:42;;;;;;;1999.90;999.90;;;;;;;;;;6213816;23;20374;-65
2023/04/24 08:28:27;;;;;;;1999.90;999.90;;;;;;;;;;6214961;23;20210;-64
2023/04/24 08:31:13;;;;;;;1999.90;999.90;;;;;;;;;;6214066;23;20548;-65
2023/04/24 08:33:59;;;;;;;1999.90;999.90;;;;;;;;;;6213471;23;20170;-65
2023/04/24 08:36:44;;;;;;;1999.90;999.90;;;;;;;;;;6214036;23;20209;-65
2023/04/24 08:39:30;;;;;;;1999.90;999.90;;;;;;;;;;6214037;23;20165;-65
2023/04/24 08:42:15;;;;;;;1999.90;999.90;;;;;;;;;;6213230;23;20696;-65
2023/04/24 08:45:00;;;;;;;1999.90;999.90;;;;;;;;;;6214903;23;20173;-64
2023/04/24 08:47:46;;;;;;;1999.90;999.90;;;;;;;;;;6215036;23;20654;-65
2023/04/24 08:50:32;;;;;;;1999.90;999.90;;;;;;;;;;6214791;23;20165;-64
2023/04/24 08:53:18;;;;;;;1999.90;999.90;;;;;;;;;;6215010;23;20166;-64
2023/04/24 08:56:04;;;;;;;1999.90;999.90;;;;;;;;;;6212974;23;20201;-66
2023/04/24 08:58:49;;;;;;;1999.90;999.90;;;;;;;;;;6213912;23;20216;-65
2023/04/24 09:01:35;;;;;;;1999.90;999.90;;;;;;;;;;6214886;23;20185;-67
2023/04/24 09:04:24;;;;;;;1999.90;999.90;;;;;;;;;;6214634;23;20253;-67
2023/04/24 09:07:11;;;;;;;1999.90;999.90;;;;;;;;;;6214706;23;20534;-68
2023/04/24 09:09:55;;;;;;;1999.90;999.90;;;;;;;;;;6214633;23;20213;-65
2023/04/24 09:12:41;;;;;;;1999.90;999.90;;;;;;;;;;6214158;23;20208;-65
2023/04/24 09:15:26;;;;;;;1999.90;999.90;;;;;;;;;;6214308;23;20174;-66
2023/04/24 09:18:11;;;;;;;1999.90;999.90;;;;;;;;;;6209387;23;20162;-66
2023/04/24 09:21:01;;;;;;;1999.90;999.90;;;;;;;;;;6211287;23;20170;-65
2023/04/24 09:23:47;;;;;;;1999.90;999.90;;;;;;;;;;6212113;23;20228;-66
2023/04/24 09:26:34;;;;;;;1999.90;999.90;;;;;;;;;;6211063;23;20280;-66
2023/04/24 09:29:20;;;;;;;1999.90;999.90;;;;;;;;;;6213141;23;20875;-65
2023/04/24 09:32:18;;;;;;;1999.90;999.90;;;;;;;;;;6214261;23;20661;-66
2023/04/24 09:35:11;;;;;;;1999.90;999.90;;;;;;;;;;6214051;23;20173;-66
2023/04/24 09:37:58;;;;;;;1999.90;999.90;;;;;;;;;;6214346;23;20174;-66
2023/04/24 09:40:43;;;;;;;1999.90;999.90;;;;;;;;;;6214288;23;20514;-66
2023/04/24 09:43:28;;;;;;;1999.90;999.90;;;;;;;;;;6214200;23;20171;-66
2023/04/24 09:46:13;;;;;;;1999.90;999.90;;;;;;;;;;6213932;23;20288;-66
2023/04/24 09:48:58;;;;;;;1999.90;999.90;;;;;;;;;;6214097;23;20240;-66
2023/04/24 09:51:43;;;;;;;1999.90;999.90;;;;;;;;;;6214232;23;20290;-66
2023/04/24 09:54:29;;;;;;;1999.90;999.90;;;;;;;;;;6214014;23;20165;-66
2023/04/24 09:57:15;;;;;;;1999.90;999.90;;;;;;;;;;6214116;23;20731;-66
2023/04/24 10:00:00;;;;;;;1999.90;999.90;;;;;;;;;;6213978;23;20165;-66
2023/04/24 10:02:45;;;;;;;1999.90;999.90;;;;;;;;;;6212954;23;20189;-66
2023/04/24 10:05:32;;;;;;;1999.90;999.90;;;;;;;;;;6213168;23;20170;-66
2023/04/24 10:08:17;;;;;;;1999.90;999.90;;;;;;;;;;6213226;23;20189;-66
2023/04/24 10:11:03;;;;;;;1999.90;999.90;;;;;;;;;;6212917;23;20208;-67
2023/04/24 10:13:48;;;;;;;1999.90;999.90;;;;;;;;;;6212022;23;20771;-67
2023/04/24 10:16:33;;;;;;;1999.90;999.90;;;;;;;;;;6213823;23;20667;-67
2023/04/24 10:19:19;;;;;;;1999.90;999.90;;;;;;;;;;6212943;23;20161;-66
2023/04/24 10:22:04;;;;;;;1999.90;999.90;;;;;;;;;;6213566;23;20609;-66
2023/04/24 10:24:50;;;;;;;1999.90;999.90;;;;;;;;;;6213271;23;20621;-65
2023/04/24 10:27:37;;;;;;;1999.90;999.90;;;;;;;;;;6213388;23;20287;-66
2023/04/24 10:30:22;;;;;;;1999.90;999.90;;;;;;;;;;6214003;23;20214;-66
2023/04/24 10:33:08;;;;;;;1999.90;999.90;;;;;;;;;;6213958;23;20183;-66
2023/04/24 10:35:54;;;;;;;1999.90;999.90;;;;;;;;;;6213751;23;20208;-67
2023/04/24 10:38:41;;;;;;;1999.90;999.90;;;;;;;;;;6214129;23;20255;-66
2023/04/24 10:41:26;;;;;;;1999.90;999.90;;;;;;;;;;6211381;23;20370;-68
2023/04/24 10:44:14;;;;;;;1999.90;999.90;;;;;;;;;;6212819;23;20176;-67
2023/04/24 10:46:58;;;;;;;1999.90;999.90;;;;;;;;;;6212628;23;20547;-67
2023/04/24 10:49:43;;;;;;;1999.90;999.90;;;;;;;;;;6212481;23;20164;-68
2023/04/24 10:52:43;;;;;;;1999.90;999.90;;;;;;;;;;6212503;23;20174;-67
2023/04/24 10:55:40;;;;;;;1999.90;999.90;;;;;;;;;;6212972;23;20173;-67
2023/04/24 10:58:36;;;;;;;1999.90;999.90;;;;;;;;;;6212053;23;20430;-67
2023/04/24 11:01:27;;;;;;;1999.90;999.90;;;;;;;;;;6213618;23;20166;-67
2023/04/24 11:04:11;;;;;;;1999.90;999.90;;;;;;;;;;6213408;23;20240;-66
2023/04/24 11:06:56;;;;;;;1999.90;999.90;;;;;;;;;;6213528;23;20578;-67
2023/04/24 11:09:42;;;;;;;1999.90;999.90;;;;;;;;;;6213557;23;20548;-67
2023/04/24 11:12:27;;;;;;;1999.90;999.90;;;;;;;;;;6213661;23;20170;-67
2023/04/24 11:15:14;;;;;;;1999.90;999.90;;;;;;;;;;6213295;23;20170;-67
2023/04/24 11:18:00;;;;;;;1999.90;999.90;;;;;;;;;;6213597;23;20207;-67
2023/04/24 11:20:45;;;;;;;1999.90;999.90;;;;;;;;;;6213511;23;20168;-67
2023/04/24 11:23:36;;;;;;;1999.90;999.90;;;;;;;;;;6213574;23;20212;-67
2023/04/24 11:26:24;;;;;;;1999.90;999.90;;;;;;;;;;6213545;23;20229;-67
2023/04/24 11:29:08;;;;;;;1999.90;999.90;;;;;;;;;;6213343;23;20321;-67
2023/04/24 11:31:54;;;;;;;1999.90;999.90;;;;;;;;;;6213519;23;20250;-67
2023/04/24 11:34:41;;;;;;;1999.90;999.90;;;;;;;;;;6213314;23;20641;-67
2023/04/24 11:37:27;;;;;;;1999.90;999.90;;;;;;;;;;6213225;23;20258;-67
2023/04/24 11:40:13;;;;;;;1999.90;999.90;;;;;;;;;;6212595;23;20621;-67
2023/04/24 11:43:00;;;;;;;1999.90;999.90;;;;;;;;;;6211892;23;20375;-67
2023/04/24 11:45:48;;;;;;;1999.90;999.90;;;;;;;;;;6213150;23;20723;-67
2023/04/24 11:48:36;;;;;;;1999.90;999.90;;;;;;;;;;6213455;23;20317;-67
2023/04/24 11:51:22;;;;;;;1999.90;999.90;;;;;;;;;;6212528;23;20249;-67
2023/04/24 11:54:09;;;;;;;1999.90;999.90;;;;;;;;;;6212873;23;20185;-67
2023/04/24 11:56:54;;;;;;;1999.90;999.90;;;;;;;;;;6213347;23;20203;-67
2023/04/24 11:59:39;;;;;;;1999.90;999.90;;;;;;;;;;6213267;23;20508;-67
2023/04/24 12:02:24;;;;;;;1999.90;999.90;;;;;;;;;;6213544;23;20215;-67
2023/04/24 12:05:11;;;;;;;1999.90;999.90;;;;;;;;;;6213337;23;20208;-67
2023/04/24 12:07:57;;;;;;;1999.90;999.90;;;;;;;;;;6213886;23;20196;-68
2023/04/24 12:10:42;;;;;;;1999.90;999.90;;;;;;;;;;6215193;23;20256;-68
2023/04/24 12:13:27;;;;;;;1999.90;999.90;;;;;;;;;;6214974;23;20514;-68
2023/04/24 12:16:13;;;;;;;1999.90;999.90;;;;;;;;;;6215021;23;20309;-68
2023/04/24 12:18:58;;;;;;;1999.90;999.90;;;;;;;;;;6215192;23;20243;-68
2023/04/24 12:21:43;;;;;;;1999.90;999.90;;;;;;;;;;6215214;23;20171;-68
2023/04/24 12:24:30;;;;;;;1999.90;999.90;;;;;;;;;;6215232;23;20168;-67
2023/04/24 12:27:19;;;;;;;1999.90;999.90;;;;;;;;;;6214546;23;20201;-66
2023/04/24 12:30:05;;;;;;;1999.90;999.90;;;;;;;;;;6211892;23;20363;-67
2023/04/24 12:32:51;;;;;;;1999.90;999.90;;;;;;;;;;6214281;23;20235;-66
2023/04/24 12:35:36;;;;;;;1999.90;999.90;;;;;;;;;;6212494;23;20211;-66
2023/04/24 12:38:23;;;;;;;1999.90;999.90;;;;;;;;;;6215268;23;20229;-67
2023/04/24 12:41:10;;;;;;;1999.90;999.90;;;;;;;;;;6214776;23;20686;-67
2023/04/24 12:43:55;;;;;;;1999.90;999.90;;;;;;;;;;6213244;23;20218;-67
2023/04/24 12:46:40;;;;;;;1999.90;999.90;;;;;;;;;;6213759;23;20318;-66
2023/04/24 12:49:25;;;;;;;1999.90;999.90;;;;;;;;;;6213491;23;20194;-67
2023/04/24 12:52:10;;;;;;;1999.90;999.90;;;;;;;;;;6213145;23;20169;-68
2023/04/24 12:54:57;;;;;;;1999.90;999.90;;;;;;;;;;6213325;23;20167;-68
2023/04/24 12:57:43;;;;;;;1999.90;999.90;;;;;;;;;;6213882;23;20178;-68
2023/04/24 13:00:28;;;;;;;1999.90;999.90;;;;;;;;;;6212754;23;20245;-68
2023/04/24 13:03:13;;;;;;;1999.90;999.90;;;;;;;;;;6212762;23;20387;-67
2023/04/24 13:05:58;;;;;;;1999.90;999.90;;;;;;;;;;6213445;23;20303;-68
2023/04/24 13:08:42;;;;;;;1999.90;999.90;;;;;;;;;;6212876;23;20195;-68
2023/04/24 13:11:27;;;;;;;1999.90;999.90;;;;;;;;;;6213844;23;20169;-67
2023/04/24 13:14:14;;;;;;;1999.90;999.90;;;;;;;;;;6213425;23;20169;-67
2023/04/24 13:16:58;;;;;;;1999.90;999.90;;;;;;;;;;6214250;23;20534;-67
2023/04/24 13:19:44;;;;;;;1999.90;999.90;;;;;;;;;;6211979;23;20461;-67
2023/04/24 13:22:29;;;;;;;1999.90;999.90;;;;;;;;;;6214399;23;20184;-67
2023/04/24 13:25:16;;;;;;;1999.90;999.90;;;;;;;;;;6214211;23;20250;-67
2023/04/24 13:28:01;;;;;;;1999.90;999.90;;;;;;;;;;6214265;23;20171;-67
2023/04/24 13:30:48;;;;;;;1999.90;999.90;;;;;;;;;;6213971;23;20165;-67
2023/04/24 13:33:33;;;;;;;1999.90;999.90;;;;;;;;;;6212848;23;20263;-67
2023/04/24 13:36:18;;;;;;;1999.90;999.90;;;;;;;;;;6213298;23;20230;-68
2023/04/24 13:39:03;;;;;;;1999.90;999.90;;;;;;;;;;6214558;23;20168;-68
2023/04/24 13:41:49;;;;;;;1999.90;999.90;;;;;;;;;;6212678;23;20172;-68
2023/04/24 13:44:34;;;;;;;1999.90;999.90;;;;;;;;;;6213765;23;20213;-67
2023/04/24 13:47:20;;;;;;;1999.90;999.90;;;;;;;;;;6213931;23;20332;-68
2023/04/24 13:50:06;;;;;;;1999.90;999.90;;;;;;;;;;6213811;23;20195;-68
2023/04/24 13:52:51;;;;;;;1999.90;999.90;;;;;;;;;;6212324;23;20704;-68
2023/04/24 13:55:36;;;;;;;1999.90;999.90;;;;;;;;;;6213752;23;20172;-68
2023/04/24 13:58:21;;;;;;;1999.90;999.90;;;;;;;;;;6213860;23;20505;-67
2023/04/24 14:01:06;;;;;;;1999.90;999.90;;;;;;;;;;6213771;23;20583;-68
2023/04/24 14:03:52;;;;;;;1999.90;999.90;;;;;;;;;;6213122;23;20221;-68
2023/04/24 14:06:37;;;;;;;1999.90;999.90;;;;;;;;;;6211988;23;20362;-68
2023/04/24 14:09:23;;;;;;;1999.90;999.90;;;;;;;;;;6213418;23;20942;-68
2023/04/24 14:12:08;;;;;;;1999.90;999.90;;;;;;;;;;6212778;23;20169;-68
2023/04/24 14:14:53;;;;;;;1999.90;999.90;;;;;;;;;;6213685;23;20176;-68
2023/04/24 14:17:38;;;;;;;1999.90;999.90;;;;;;;;;;6212303;23;20299;-68
2023/04/24 14:20:24;;;;;;;1999.90;999.90;;;;;;;;;;6213180;23;20176;-68
2023/04/24 14:23:09;;;;;;;1999.90;999.90;;;;;;;;;;6212138;23;20168;-68
2023/04/24 14:25:54;;;;;;;1999.90;999.90;;;;;;;;;;6212345;23;20545;-68
2023/04/24 14:28:39;;;;;;;1999.90;999.90;;;;;;;;;;6212361;23;20196;-66
2023/04/24 14:31:24;;;;;;;1999.90;999.90;;;;;;;;;;6212657;23;20178;-68
2023/04/24 14:34:09;;;;;;;1999.90;999.90;;;;;;;;;;6212521;23;20221;-68
2023/04/24 14:36:55;;;;;;;1999.90;999.90;;;;;;;;;;6212897;23;20258;-67
2023/04/24 14:39:40;;;;;;;1999.90;999.90;;;;;;;;;;6213192;23;20632;-68
2023/04/24 14:42:25;;;;;;;1999.90;999.90;;;;;;;;;;6212650;23;20277;-68
2023/04/24 14:45:10;;;;;;;1999.90;999.90;;;;;;;;;;6213011;23;20506;-68
2023/04/24 14:47:56;;;;;;;1999.90;999.90;;;;;;;;;;6212815;23;20172;-67
2023/04/24 14:50:41;;;;;;;1999.90;999.90;;;;;;;;;;6213114;23;20169;-68
2023/04/24 14:53:27;;;;;;;1999.90;999.90;;;;;;;;;;6211857;23;20172;-68
2023/04/24 14:56:12;;;;;;;1999.90;999.90;;;;;;;;;;6211763;23;20428;-68
2023/04/24 14:58:57;;;;;;;1999.90;999.90;;;;;;;;;;6211131;23;20165;-67
2023/04/24 15:01:41;;;;;;;1999.90;999.90;;;;;;;;;;6213515;23;20662;-68
2023/04/24 15:04:27;;;;;;;1999.90;999.90;;;;;;;;;;6213320;23;20212;-68
2023/04/24 15:07:12;;;;;;;1999.90;999.90;;;;;;;;;;6212688;23;20331;-67
2023/04/24 15:09:58;;;;;;;1999.90;999.90;;;;;;;;;;6213074;23;20196;-68
2023/04/24 15:12:43;;;;;;;1999.90;999.90;;;;;;;;;;6213441;23;20526;-67
2023/04/24 15:15:28;;;;;;;1999.90;999.90;;;;;;;;;;6213195;23;20625;-68
2023/04/24 15:18:13;;;;;;;1999.90;999.90;;;;;;;;;;6210246;23;20188;-68
2023/04/24 15:20:58;;;;;;;1999.90;999.90;;;;;;;;;;6213260;23;20551;-68
2023/04/24 15:23:43;;;;;;;1999.90;999.90;;;;;;;;;;6212265;23;20174;-68
2023/04/24 15:26:30;;;;;;;1999.90;999.90;;;;;;;;;;6212416;23;20315;-68
2023/04/24 15:29:14;;;;;;;1999.90;999.90;;;;;;;;;;6213209;23;20191;-67
2023/04/24 15:31:59;;;;;;;1999.90;999.90;;;;;;;;;;6212865;23;20207;-68
2023/04/24 15:34:44;;;;;;;1999.90;999.90;;;;;;;;;;6212162;23;20219;-68
2023/04/24 15:37:29;;;;;;;1999.90;999.90;;;;;;;;;;6212026;23;20723;-67
2023/04/24 15:40:15;;;;;;;1999.90;999.90;;;;;;;;;;6212375;23;20184;-68
2023/04/24 15:43:01;;;;;;;1999.90;999.90;;;;;;;;;;6212929;23;20259;-67
2023/04/24 15:45:46;;;;;;;1999.90;999.90;;;;;;;;;;6214561;23;20284;-68
2023/04/24 15:48:31;;;;;;;1999.90;999.90;;;;;;;;;;6214203;23;20212;-68
2023/04/24 15:51:17;;;;;;;1999.90;999.90;;;;;;;;;;6213939;23;20638;-68
2023/04/24 15:54:01;;;;;;;1999.90;999.90;;;;;;;;;;6214507;23;20181;-67
2023/04/24 15:56:46;;;;;;;1999.90;999.90;;;;;;;;;;6214361;23;20300;-68
2023/04/24 15:59:33;;;;;;;1999.90;999.90;;;;;;;;;;6214363;23;20227;-67
2023/04/24 16:02:19;;;;;;;1999.90;999.90;;;;;;;;;;6215311;23;20169;-68
2023/04/24 16:05:06;;;;;;;1999.90;999.90;;;;;;;;;;6214361;23;20249;-68
2023/04/24 16:07:51;;;;;;;1999.90;999.90;;;;;;;;;;6213781;23;20209;-67
2023/04/24 16:10:36;;;;;;;1999.90;999.90;;;;;;;;;;6214918;23;20528;-67
2023/04/24 16:13:20;;;;;;;1999.90;999.90;;;;;;;;;;6213339;23;20165;-68
2023/04/24 16:16:07;;;;;;;1999.90;999.90;;;;;;;;;;6212717;23;20378;-68
2023/04/24 16:18:52;;;;;;;1999.90;999.90;;;;;;;;;;6214472;23;20508;-69
2023/04/24 16:21:37;;;;;;;1999.90;999.90;;;;;;;;;;6214650;23;20678;-68
2023/04/24 16:24:22;;;;;;;1999.90;999.90;;;;;;;;;;6214533;23;20186;-67
2023/04/24 16:27:08;;;;;;;1999.90;999.90;;;;;;;;;;6213747;23;20300;-68
2023/04/24 16:29:53;;;;;;;1999.90;999.90;;;;;;;;;;6213670;23;20415;-68
2023/04/24 16:32:39;;;;;;;1999.90;999.90;;;;;;;;;;6213741;23;20165;-67
2023/04/24 16:35:24;;;;;;;1999.90;999.90;;;;;;;;;;6214544;23;20699;-67
2023/04/24 16:38:10;;;;;;;1999.90;999.90;;;;;;;;;;6214266;23;20169;-67
2023/04/24 16:40:55;;;;;;;1999.90;999.90;;;;;;;;;;6213324;23;20496;-66
2023/04/24 16:43:40;;;;;;;1999.90;999.90;;;;;;;;;;6213445;23;20703;-67
2023/04/24 16:46:25;;;;;;;1999.90;999.90;;;;;;;;;;6213664;23;20634;-67
2023/04/24 16:49:12;;;;;;;1999.90;999.90;;;;;;;;;;6211521;23;20205;-67
2023/04/24 16:51:57;;;;;;;1999.90;999.90;;;;;;;;;;6212564;23;20569;-67
2023/04/24 16:54:41;;;;;;;1999.90;999.90;;;;;;;;;;6212016;23;20210;-67
2023/04/24 16:57:26;;;;;;;1999.90;999.90;;;;;;;;;;6211605;23;20206;-67
2023/04/24 17:00:12;;;;;;;1999.90;999.90;;;;;;;;;;6211112;23;20209;-67